Time;durP1;ratioP1;P1;durP2;ratioP2;P2;SDS_P1;SDS_P2;PMS_P1;PMS_P2;Temp;Humidity;BMP_temperature;BMP_pressure;BME280_temperature;BME280_humidity;BME280_pressure;Samples;Min_cycle;Max_cycle;Signal;HPM_P1;HPM_P2
2023/12/04 05:01:18;;;;;;;18.37;9.30;;;;;;;-5.53;100.00;101337.94;5421064;28;20100;-86
2023/12/04 05:04:21;;;;;;;15.65;7.95;;;;;;;-5.53;100.00;101345.81;5379706;33;33494;-86
2023/12/04 05:07:24;;;;;;;20.90;8.80;;;;;;;-5.53;100.00;101339.69;5354793;33;33656;-86
2023/12/04 05:10:27;;;;;;;16.35;8.57;;;;;;;-5.49;100.00;101346.56;5354496;33;33671;-86
2023/12/04 05:13:30;;;;;;;17.90;8.10;;;;;;;-5.52;100.00;101349.28;5354411;33;33908;-86
2023/12/04 05:16:33;;;;;;;17.23;9.35;;;;;;;-5.51;100.00;101348.38;5366857;33;34681;-86
2023/12/04 05:19:36;;;;;;;15.95;7.45;;;;;;;-5.55;100.00;101355.50;5370512;33;33597;-86
2023/12/04 05:22:40;;;;;;;17.37;8.15;;;;;;;-5.50;100.00;101356.19;5357097;33;33913;-86
2023/12/04 05:25:43;;;;;;;14.95;7.47;;;;;;;-5.52;100.00;101354.53;5366928;33;33787;-86
2023/12/04 05:28:52;;;;;;;14.18;7.70;;;;;;;-5.59;100.00;101356.47;5367617;33;34053;-86
2023/12/04 05:31:57;;;;;;;16.10;6.95;;;;;;;-5.40;100.00;101355.87;5355183;33;35541;-86
2023/12/04 05:35:00;;;;;;;13.23;7.43;;;;;;;-5.49;100.00;101349.19;5356931;33;33268;-86
2023/12/04 05:38:03;;;;;;;13.98;7.35;;;;;;;-5.60;100.00;101349.53;5356503;33;34710;-86
2023/12/04 05:41:06;;;;;;;15.15;7.28;;;;;;;-5.63;100.00;101357.50;5366635;33;34996;-85
2023/12/04 05:44:09;;;;;;;11.95;7.87;;;;;;;-5.59;100.00;101351.22;5368088;33;34168;-86
2023/12/04 05:47:12;;;;;;;18.00;7.60;;;;;;;-5.81;100.00;101352.88;5353912;33;34287;-86
2023/12/04 05:50:16;;;;;;;16.25;8.88;;;;;;;-5.81;100.00;101348.47;5343070;33;33626;-86
2023/12/04 05:53:19;;;;;;;13.10;7.75;;;;;;;-5.79;100.00;101353.66;5342182;33;33514;-86
2023/12/04 05:56:21;;;;;;;17.95;9.35;;;;;;;-5.87;100.00;101361.78;5366010;33;34023;-86
2023/12/04 05:59:25;;;;;;;17.60;9.02;;;;;;;-5.83;100.00;101352.91;5354697;33;33352;-85
2023/12/04 06:02:30;;;;;;;16.95;8.95;;;;;;;-5.80;100.00;101352.81;5381488;33;33859;-87
2023/12/04 06:05:33;;;;;;;20.15;8.48;;;;;;;-5.79;100.00;101361.53;5354768;33;35396;-90
2023/12/04 06:08:36;;;;;;;20.27;8.65;;;;;;;-5.74;100.00;101364.84;5353990;33;33970;-90
2023/12/04 06:11:39;;;;;;;19.05;8.82;;;;;;;-5.75;100.00;101366.63;5353850;33;34014;-87
2023/12/04 06:14:42;;;;;;;18.70;8.90;;;;;;;-5.78;100.00;101369.34;5353499;33;34020;-86
2023/12/04 06:17:45;;;;;;;16.80;8.23;;;;;;;-5.80;100.00;101359.81;5353438;33;33519;-86
2023/12/04 06:20:48;;;;;;;14.87;7.85;;;;;;;-5.75;100.00;101360.53;5365488;33;34491;-86
2023/12/04 06:23:52;;;;;;;21.95;9.20;;;;;;;-5.75;100.00;101369.25;5369709;33;34697;-86
2023/12/04 06:26:55;;;;;;;18.33;9.15;;;;;;;-5.74;100.00;101363.09;5360987;32;33921;-86
2023/12/04 06:29:59;;;;;;;24.23;9.52;;;;;;;-5.74;100.00;101359.63;5361464;33;34177;-86
2023/12/04 06:33:02;;;;;;;17.73;8.88;;;;;;;-5.75;100.00;101364.00;5341100;33;34895;-86
2023/12/04 06:36:07;;;;;;;18.85;10.10;;;;;;;-5.66;100.00;101362.00;5349113;33;33606;-86
2023/12/04 06:39:11;;;;;;;24.35;9.90;;;;;;;-5.56;100.00;101374.75;5360127;33;34029;-86
2023/12/04 06:42:15;;;;;;;20.70;9.93;;;;;;;-5.27;100.00;101379.00;5351611;33;33777;-86
2023/12/04 06:45:19;;;;;;;26.77;11.35;;;;;;;-5.31;100.00;101387.91;5359945;33;33595;-85
2023/12/04 06:48:22;;;;;;;31.50;11.32;;;;;;;-5.31;100.00;101385.28;5372213;33;33605;-86
2023/12/04 06:51:25;;;;;;;25.67;12.13;;;;;;;-5.31;100.00;101385.28;5373200;33;34686;-87
2023/12/04 06:54:29;;;;;;;22.55;10.68;;;;;;;-5.25;100.00;101392.09;5377868;33;33846;-87
2023/12/04 06:57:32;;;;;;;20.95;10.57;;;;;;;-5.14;100.00;101383.88;5359582;33;33445;-86
2023/12/04 07:00:35;;;;;;;19.25;9.25;;;;;;;-5.04;100.00;101385.25;5364721;33;34054;-86
2023/12/04 07:03:38;;;;;;;19.85;10.35;;;;;;;-4.96;100.00;101383.22;5354931;33;33366;-87
2023/12/04 07:06:42;;;;;;;24.10;12.20;;;;;;;-4.91;100.00;101381.28;5359802;33;34487;-87
2023/12/04 07:09:45;;;;;;;19.77;10.73;;;;;;;-4.68;100.00;101390.09;5340504;33;34060;-86
2023/12/04 07:12:49;;;;;;;23.85;11.55;;;;;;;-4.54;100.00;101400.97;5369848;33;33836;-86
2023/12/04 07:15:52;;;;;;;23.80;10.02;;;;;;;-4.43;100.00;101397.94;5354187;33;35401;-85
2023/12/04 07:18:55;;;;;;;27.62;11.90;;;;;;;-4.18;100.00;101401.38;5355459;33;33807;-85
2023/12/04 07:21:58;;;;;;;21.90;10.70;;;;;;;-4.06;100.00;101401.84;5367549;33;34803;-85
2023/12/04 07:25:02;;;;;;;22.87;12.18;;;;;;;-3.91;100.00;101401.22;5356724;33;34845;-85
2023/12/04 07:28:05;;;;;;;26.98;12.65;;;;;;;-3.79;100.00;101387.59;5357561;33;33898;-85
2023/12/04 07:31:09;;;;;;;22.45;12.45;;;;;;;-3.63;100.00;101390.44;5357438;33;33788;-85
2023/12/04 07:34:12;;;;;;;24.30;11.35;;;;;;;-3.51;100.00;101389.97;5359530;33;33927;-84
2023/12/04 07:37:16;;;;;;;21.50;11.02;;;;;;;-3.33;100.00;101392.75;5345697;33;35059;-84
2023/12/04 07:40:22;;;;;;;22.37;10.23;;;;;;;-3.32;100.00;101403.22;5329601;33;34142;-85
2023/12/04 07:43:27;;;;;;;26.10;11.77;;;;;;;-3.26;100.00;101402.94;5361566;33;33509;-85
2023/12/04 07:46:30;;;;;;;25.73;12.48;;;;;;;-3.17;100.00;101409.63;5374565;33;33333;-85
2023/12/04 07:49:33;;;;;;;22.48;11.85;;;;;;;-2.90;100.00;101409.34;5356900;33;34016;-85
2023/12/04 07:52:36;;;;;;;23.95;11.80;;;;;;;-2.69;100.00;101402.28;5365627;33;33398;-85
2023/12/04 07:55:39;;;;;;;41.10;11.90;;;;;;;-2.56;100.00;101399.03;5366951;33;33916;-86
2023/12/04 07:58:42;;;;;;;31.42;12.65;;;;;;;-2.42;100.00;101402.84;5362540;33;34186;-84
2023/12/04 08:01:45;;;;;;;21.85;11.23;;;;;;;-2.13;100.00;101407.66;5357615;33;34661;-85
2023/12/04 08:04:49;;;;;;;27.08;12.60;;;;;;;-2.00;100.00;101414.97;5351312;33;33499;-85
2023/12/04 08:07:52;;;;;;;22.85;12.43;;;;;;;-1.88;100.00;101406.47;5367938;33;34315;-84
2023/12/04 08:10:55;;;;;;;22.58;11.60;;;;;;;-1.79;100.00;101403.41;5352644;33;33973;-85
2023/12/04 08:13:58;;;;;;;21.95;11.70;;;;;;;-1.63;100.00;101407.03;5343260;33;34482;-84
2023/12/04 08:17:01;;;;;;;31.95;13.20;;;;;;;-1.51;100.00;101402.09;5371747;33;34816;-89
2023/12/04 08:20:06;;;;;;;24.77;12.05;;;;;;;-1.49;100.00;101394.91;5345190;33;33850;-92
2023/12/04 08:23:10;;;;;;;28.20;12.63;;;;;;;-1.54;100.00;101402.22;5364215;33;34124;-89
2023/12/04 08:26:20;;;;;;;20.88;11.95;;;;;;;-1.52;100.00;101406.50;5339880;33;33890;-85
2023/12/04 08:29:23;;;;;;;26.17;12.55;;;;;;;-1.26;100.00;101412.28;5351436;33;33907;-86
2023/12/04 08:32:27;;;;;;;25.45;12.75;;;;;;;-1.24;100.00;101402.50;5357095;33;34530;-85
2023/12/04 08:35:33;;;;;;;24.58;11.48;;;;;;;-1.13;100.00;101410.75;5379608;33;33652;-86
2023/12/04 08:38:36;;;;;;;27.60;11.52;;;;;;;-1.07;100.00;101404.28;5368385;33;33780;-85
2023/12/04 08:41:39;;;;;;;23.83;10.70;;;;;;;-0.96;100.00;101409.91;5377181;33;33489;-85
2023/12/04 08:44:53;;;;;;;25.30;9.73;;;;;;;-0.77;100.00;101408.00;5366952;33;34467;-85
2023/12/04 08:47:57;;;;;;;23.83;10.23;;;;;;;-0.63;100.00;101409.06;5381362;33;35002;-87
2023/12/04 08:51:00;;;;;;;13.73;8.15;;;;;;;-0.51;100.00;101403.97;5368538;33;33449;-88
2023/12/04 08:54:03;;;;;;;13.57;6.80;;;;;;;-0.56;100.00;101400.72;5342778;33;33834;-88
2023/12/04 08:57:20;;;;;;;14.38;7.30;;;;;;;-0.55;100.00;101406.87;5353332;33;34307;-89
2023/12/04 09:00:23;;;;;;;15.57;7.55;;;;;;;-0.52;100.00;101401.44;5353694;33;32324;-88
2023/12/04 09:03:26;;;;;;;13.70;7.70;;;;;;;-0.35;100.00;101404.03;5361009;33;33468;-88
2023/12/04 09:06:34;;;;;;;17.55;8.98;;;;;;;-0.35;100.00;101404.03;5369584;33;33817;-91
2023/12/04 09:09:40;;;;;;;15.52;7.45;;;;;;;-0.31;100.00;101399.44;5356999;33;33908;-88
2023/12/04 09:12:43;;;;;;;14.65;7.82;;;;;;;-0.36;100.00;101409.38;5368177;33;33633;-88
2023/12/04 09:15:47;;;;;;;19.70;9.13;;;;;;;-0.57;100.00;101408.75;5375575;33;34817;-88
2023/12/04 09:18:50;;;;;;;29.75;12.05;;;;;;;-0.39;100.00;101406.91;5367992;33;33847;-88
2023/12/04 09:21:53;;;;;;;24.48;11.15;;;;;;;-0.58;100.00;101409.69;5380689;33;33779;-88
2023/12/04 09:25:10;;;;;;;24.63;9.95;;;;;;;-0.80;100.00;101408.16;5361373;33;33887;-85
2023/12/04 09:28:13;;;;;;;22.73;11.80;;;;;;;-0.66;100.00;101409.25;5377198;33;34951;-85
2023/12/04 09:31:16;;;;;;;29.70;11.15;;;;;;;-0.38;100.00;101405.97;5366494;33;33831;-85
2023/12/04 09:34:20;;;;;;;17.70;9.30;;;;;;;-0.13;100.00;101402.84;5355178;33;33940;-87
2023/12/04 09:37:24;;;;;;;19.33;10.13;;;;;;;-0.11;100.00;101393.91;5367794;33;33600;-85
2023/12/04 09:40:27;;;;;;;16.40;9.73;;;;;;;0.01;100.00;101394.16;5364728;33;34052;-85
2023/12/04 09:43:32;;;;;;;19.00;9.23;;;;;;;-0.02;100.00;101390.75;5348257;33;33538;-85
2023/12/04 09:46:35;;;;;;;19.25;10.05;;;;;;;-0.13;100.00;101384.34;5362529;33;33862;-85
2023/12/04 09:49:39;;;;;;;14.52;8.15;;;;;;;-0.16;100.00;101377.41;5349941;33;33920;-89
2023/12/04 09:52:42;;;;;;;17.70;9.07;;;;;;;-0.14;100.00;101372.91;5362651;33;34176;-89
2023/12/04 09:55:49;;;;;;;18.35;9.73;;;;;;;-0.08;100.00;101366.41;5355622;33;33747;-89
2023/12/04 09:58:58;;;;;;;16.12;8.65;;;;;;;0.01;100.00;101359.75;5381246;33;34342;-85
2023/12/04 10:02:01;;;;;;;22.05;9.57;;;;;;;0.06;100.00;101355.03;5379118;33;35173;-86
2023/12/04 10:05:05;;;;;;;15.60;8.95;;;;;;;-0.01;100.00;101357.19;5350676;33;34798;-85
2023/12/04 10:08:08;;;;;;;16.77;8.50;;;;;;;-0.05;100.00;101363.59;5360782;32;35018;-86
2023/12/04 10:11:14;;;;;;;13.55;8.25;;;;;;;-0.04;100.00;101352.06;5364386;33;35324;-85
2023/12/04 10:14:19;;;;;;;19.98;9.80;;;;;;;0.01;100.00;101338.56;5379438;33;34084;-85
2023/12/04 10:17:22;;;;;;;17.40;7.85;;;;;;;-0.19;100.00;101337.03;5363050;33;34026;-84
2023/12/04 10:20:25;;;;;;;14.80;8.82;;;;;;;-0.24;100.00;101337.28;5353420;33;34381;-85
2023/12/04 10:23:42;;;;;;;19.30;8.93;;;;;;;0.00;100.00;101324.50;5366712;33;33788;-85
2023/12/04 10:26:51;;;;;;;13.60;8.35;;;;;;;0.12;100.00;101323.78;5363578;33;34027;-84
2023/12/04 10:29:56;;;;;;;19.77;9.35;;;;;;;0.16;100.00;101320.00;5360528;33;34285;-85
2023/12/04 10:33:04;;;;;;;21.17;8.05;;;;;;;0.19;100.00;101316.34;5348487;33;34621;-85
2023/12/04 10:36:11;;;;;;;14.32;6.90;;;;;;;0.20;100.00;101313.59;5374690;33;33509;-84
2023/12/04 10:39:14;;;;;;;15.90;7.60;;;;;;;0.16;100.00;101303.28;5364109;33;33922;-84
2023/12/04 10:42:29;;;;;;;13.65;7.00;;;;;;;0.22;100.00;101306.41;5348094;33;34416;-85
2023/12/04 10:45:36;;;;;;;10.52;6.60;;;;;;;0.29;100.00;101295.47;5354831;33;34981;-84
2023/12/04 10:48:40;;;;;;;15.43;7.50;;;;;;;0.42;100.00;101293.81;5366536;33;33880;-85
2023/12/04 10:51:44;;;;;;;12.73;6.82;;;;;;;0.37;100.00;101291.44;5358124;33;33962;-85
2023/12/04 10:54:49;;;;;;;11.55;7.22;;;;;;;0.46;100.00;101282.09;5358464;33;33534;-84
2023/12/04 10:57:54;;;;;;;13.62;7.47;;;;;;;0.70;100.00;101278.91;5345983;33;33553;-85
2023/12/04 11:01:01;;;;;;;15.18;7.70;;;;;;;0.72;100.00;101279.69;5374357;33;33653;-84
2023/12/04 11:04:13;;;;;;;11.12;5.93;;;;;;;0.86;100.00;101277.91;5356378;33;33542;-85
2023/12/04 11:07:18;;;;;;;10.90;5.82;;;;;;;1.02;100.00;101283.12;5364179;33;33880;-85
2023/12/04 11:10:25;;;;;;;13.75;6.72;;;;;;;1.01;100.00;101267.31;5366000;33;34705;-88
2023/12/04 11:13:30;;;;;;;10.35;6.22;;;;;;;0.99;100.00;101263.91;5363027;33;33687;-86
2023/12/04 11:17:01;;;;;;;11.95;6.22;;;;;;;1.07;100.00;101264.28;5351906;33;34809;-85
2023/12/04 11:20:17;;;;;;;13.00;6.32;;;;;;;1.31;100.00;101260.09;5359193;33;33405;-85
2023/12/04 11:23:21;;;;;;;9.85;5.82;;;;;;;1.60;99.53;101260.03;5374799;33;34196;-85
2023/12/04 11:26:25;;;;;;;10.73;5.75;;;;;;;1.72;98.15;101255.75;5346242;33;33883;-85
2023/12/04 11:29:29;;;;;;;10.77;5.60;;;;;;;1.95;95.09;101251.59;5351314;33;34699;-85
2023/12/04 11:32:44;;;;;;;9.30;5.68;;;;;;;2.50;95.22;101245.25;5375449;33;33592;-85
2023/12/04 11:35:47;;;;;;;8.65;5.62;;;;;;;2.93;91.25;101239.66;5372779;33;33638;-84
2023/12/04 11:38:50;;;;;;;8.00;5.10;;;;;;;2.99;87.57;101235.72;5359783;33;34323;-84
2023/12/04 11:41:53;;;;;;;9.25;5.28;;;;;;;3.36;88.00;101231.25;5353498;33;34296;-85
2023/12/04 11:44:59;;;;;;;10.43;5.30;;;;;;;3.23;87.15;101227.78;5336939;33;33618;-85
2023/12/04 11:48:03;;;;;;;11.07;5.65;;;;;;;3.15;88.33;101223.00;5369513;33;35138;-85
2023/12/04 11:51:07;;;;;;;13.18;6.32;;;;;;;3.55;84.75;101209.50;5356693;33;33790;-85
2023/12/04 11:54:10;;;;;;;11.75;5.57;;;;;;;3.57;85.44;101208.44;5365210;33;33332;-85
2023/12/04 11:57:13;;;;;;;11.88;5.50;;;;;;;4.02;82.84;101210.44;5356938;33;33899;-85
2023/12/04 12:00:18;;;;;;;8.93;5.75;;;;;;;4.21;81.81;101204.56;5383600;33;34010;-85
2023/12/04 12:03:21;;;;;;;10.85;6.40;;;;;;;4.77;79.91;101200.22;5388646;33;35185;-85
2023/12/04 12:06:26;;;;;;;10.45;6.25;;;;;;;5.53;76.96;101196.84;5366227;33;35469;-85
2023/12/04 12:09:31;;;;;;;10.43;5.35;;;;;;;5.56;74.05;101197.47;5369733;33;34017;-85
2023/12/04 12:12:35;;;;;;;11.60;6.07;;;;;;;6.90;66.23;101194.25;5356914;33;35081;-85
2023/12/04 12:15:38;;;;;;;9.80;5.62;;;;;;;7.64;59.62;101177.84;5341204;33;33475;-85
2023/12/04 12:18:41;;;;;;;11.20;7.00;;;;;;;7.52;58.36;101177.13;5370018;33;34397;-85
2023/12/04 12:21:45;;;;;;;11.43;6.05;;;;;;;7.37;57.42;101174.00;5377435;33;34718;-85
2023/12/04 12:24:49;;;;;;;10.57;6.25;;;;;;;7.95;53.93;101157.94;5376537;33;33682;-84
2023/12/04 12:27:52;;;;;;;8.68;5.45;;;;;;;8.80;51.16;101161.66;5365620;33;35484;-85
2023/12/04 12:31:03;;;;;;;9.95;5.68;;;;;;;8.47;51.79;101143.38;5365904;33;34892;-85
2023/12/04 12:34:06;;;;;;;18.45;6.87;;;;;;;10.02;47.14;101145.16;5374695;33;33454;-89
2023/12/04 12:37:09;;;;;;;9.88;6.30;;;;;;;10.41;44.81;101128.66;5355509;33;33917;-89
2023/12/04 12:40:12;;;;;;;10.88;6.40;;;;;;;11.21;41.16;101117.63;5342274;33;33547;-90
2023/12/04 12:43:16;;;;;;;9.93;6.15;;;;;;;10.62;41.80;101126.47;5341642;33;33680;-85
2023/12/04 12:46:19;;;;;;;10.15;5.82;;;;;;;9.73;43.71;101118.53;5349269;33;35308;-84
2023/12/04 12:49:22;;;;;;;9.93;6.47;;;;;;;9.19;45.09;101117.66;5345111;33;34762;-84
2023/12/04 12:52:40;;;;;;;8.02;5.45;;;;;;;8.57;46.29;101112.84;5360218;33;33586;-84
2023/12/04 12:55:44;;;;;;;10.32;5.43;;;;;;;8.10;48.07;101119.97;5372334;33;34650;-84
2023/12/04 12:58:47;;;;;;;10.95;5.70;;;;;;;6.37;52.39;101123.84;5374649;33;33893;-83
2023/12/04 13:01:50;;;;;;;9.45;6.25;;;;;;;5.29;57.12;101116.94;5354208;33;35264;-84
2023/12/04 13:04:53;;;;;;;9.85;5.25;;;;;;;3.96;62.36;101112.34;5348457;33;34112;-84
2023/12/04 13:07:57;;;;;;;11.02;5.82;;;;;;;2.93;67.07;101122.63;5363036;33;34647;-84
2023/12/04 13:11:00;;;;;;;9.57;5.62;;;;;;;2.46;71.72;101114.41;5355501;33;33650;-84
2023/12/04 13:14:03;;;;;;;8.50;5.15;;;;;;;2.02;75.81;101112.16;5364309;33;33541;-83
2023/12/04 13:17:06;;;;;;;8.30;5.32;;;;;;;1.84;77.23;101114.22;5362039;33;34964;-85
2023/12/04 13:20:13;;;;;;;7.62;5.07;;;;;;;1.47;81.53;101118.50;5357303;33;33868;-85
2023/12/04 13:23:17;;;;;;;8.80;5.68;;;;;;;1.28;82.82;101110.91;5337171;33;33549;-85
2023/12/04 13:26:20;;;;;;;8.70;5.62;;;;;;;1.30;84.61;101103.69;5345845;33;35512;-86
2023/12/04 13:29:24;;;;;;;10.05;5.05;;;;;;;1.09;87.60;101112.09;5350358;33;34764;-85
2023/12/04 13:32:27;;;;;;;9.48;5.68;;;;;;;0.90;89.35;101109.75;5356806;33;33807;-85
2023/12/04 13:35:30;;;;;;;11.05;5.18;;;;;;;1.12;90.58;101108.41;5339345;33;34458;-85
2023/12/04 13:38:35;;;;;;;11.95;5.60;;;;;;;0.93;88.02;101107.87;5374816;33;33807;-85
2023/12/04 13:45:02;;;;;;;11.85;6.05;;;;;;;0.59;92.99;101094.13;5359862;33;33521;-85
2023/12/04 13:48:05;;;;;;;8.20;4.95;;;;;;;0.55;94.63;101098.72;5367250;33;33868;-86
2023/12/04 13:51:09;;;;;;;9.10;5.10;;;;;;;0.60;95.51;101082.56;5334991;33;34094;-86
2023/12/04 13:54:28;;;;;;;10.55;5.60;;;;;;;0.42;95.76;101090.72;5365499;33;33384;-85
2023/12/04 13:57:43;;;;;;;8.40;5.82;;;;;;;0.36;100.00;101091.09;5353199;33;34217;-86
2023/12/04 14:00:46;;;;;;;10.55;5.90;;;;;;;0.52;98.48;101084.84;5345820;33;35009;-90
2023/12/04 14:03:49;;;;;;;10.18;5.97;;;;;;;0.38;100.00;101096.28;5365259;33;34700;-89
2023/12/04 14:06:52;;;;;;;11.32;5.37;;;;;;;0.42;99.73;101089.84;5378238;33;34668;-89
2023/12/04 14:09:56;;;;;;;11.85;5.87;;;;;;;0.28;99.24;101080.09;5357502;33;33854;-86
2023/12/04 14:12:59;;;;;;;9.77;5.70;;;;;;;0.29;100.00;101078.31;5356254;33;33504;-85
2023/12/04 14:16:03;;;;;;;24.87;7.07;;;;;;;0.27;100.00;101090.81;5360233;33;35003;-85
2023/12/04 14:19:06;;;;;;;10.63;6.20;;;;;;;0.08;100.00;101089.25;5347497;33;33899;-85
2023/12/04 14:22:10;;;;;;;13.15;5.78;;;;;;;0.06;100.00;101095.59;5351836;33;33466;-85
2023/12/04 14:25:13;;;;;;;8.10;5.55;;;;;;;0.09;100.00;101084.81;5358781;33;34060;-85
2023/12/04 14:28:16;;;;;;;8.15;4.87;;;;;;;-0.06;100.00;101078.66;5360134;33;33519;-86
2023/12/04 14:31:30;;;;;;;12.63;6.28;;;;;;;-0.13;100.00;101074.69;5358677;33;34922;-85
2023/12/04 14:34:33;;;;;;;13.55;6.03;;;;;;;-0.26;100.00;101067.50;5350955;33;33921;-85
2023/12/04 14:37:37;;;;;;;12.13;5.87;;;;;;;-0.21;100.00;101061.06;5364437;33;33754;-85
2023/12/04 14:40:40;;;;;;;10.20;5.57;;;;;;;-0.28;100.00;101064.06;5349921;33;33557;-85
2023/12/04 14:43:43;;;;;;;9.82;5.60;;;;;;;-0.40;100.00;101062.16;5357306;33;34539;-85
2023/12/04 14:46:46;;;;;;;11.68;6.30;;;;;;;-0.37;100.00;101051.41;5345911;33;34757;-85
2023/12/04 14:49:54;;;;;;;11.38;6.37;;;;;;;-0.46;100.00;101051.94;5356710;33;34065;-85
2023/12/04 14:52:59;;;;;;;11.90;6.20;;;;;;;-0.48;100.00;101049.38;5357256;33;34302;-85
2023/12/04 15:22:08;;;;;;;12.35;6.70;;;;;;;-0.45;100.00;101051.00;5358560;33;137188;-84
2023/12/04 15:25:11;;;;;;;11.77;6.18;;;;;;;-0.49;100.00;101041.56;5346971;33;33895;-86
2023/12/04 15:28:14;;;;;;;11.93;6.75;;;;;;;-0.42;100.00;101040.22;5348427;33;34026;-86
2023/12/04 15:31:17;;;;;;;13.70;6.35;;;;;;;-0.50;100.00;101024.84;5347190;33;35258;-85
2023/12/04 15:34:22;;;;;;;15.00;7.20;;;;;;;-0.50;100.00;101026.59;5362663;33;33801;-84
2023/12/04 15:37:25;;;;;;;14.75;7.85;;;;;;;-0.43;100.00;101027.97;5363747;33;34018;-84
2023/12/04 15:40:29;;;;;;;15.00;6.82;;;;;;;-0.58;100.00;101016.50;5364050;33;33850;-84
2023/12/04 15:43:33;;;;;;;17.20;7.68;;;;;;;-0.58;100.00;101023.59;5340849;33;34759;-84
2023/12/04 15:46:35;;;;;;;15.32;6.82;;;;;;;-0.66;100.00;101023.19;5348910;33;33904;-84
2023/12/04 15:49:38;;;;;;;13.80;8.13;;;;;;;-0.64;100.00;101016.87;5348801;33;34429;-84
2023/12/04 15:52:43;;;;;;;13.55;7.22;;;;;;;-0.63;100.00;101017.72;5347635;33;34680;-84
2023/12/04 15:55:46;;;;;;;14.63;6.95;;;;;;;-0.54;100.00;101023.28;5362299;33;34089;-84
2023/12/04 15:58:49;;;;;;;14.32;6.45;;;;;;;-0.55;100.00;101026.03;5335537;33;33591;-84
2023/12/04 16:01:53;;;;;;;11.38;6.45;;;;;;;-0.51;100.00;101012.53;5355725;33;33956;-84
2023/12/04 16:04:57;;;;;;;16.37;7.82;;;;;;;-0.64;100.00;101018.62;5356261;33;34699;-83
2023/12/04 16:08:02;;;;;;;14.48;8.20;;;;;;;-0.63;100.00;101018.56;5350053;33;33613;-83
2023/12/04 16:11:06;;;;;;;17.60;7.40;;;;;;;-0.74;100.00;101023.63;5361595;32;33939;-84
2023/12/04 16:14:09;;;;;;;14.23;7.05;;;;;;;-0.80;100.00;101026.63;5367484;33;34549;-83
2023/12/04 16:17:12;;;;;;;13.00;6.78;;;;;;;-0.87;100.00;101025.28;5352491;33;34902;-83
2023/12/04 16:20:16;;;;;;;15.65;8.05;;;;;;;-0.87;100.00;101017.34;5349457;33;33881;-84
2023/12/04 16:23:20;;;;;;;16.95;8.10;;;;;;;-0.89;100.00;101003.37;5361504;33;34725;-84
2023/12/04 16:26:23;;;;;;;18.55;7.87;;;;;;;-0.95;100.00;101012.50;5352287;33;34629;-83
2023/12/04 16:29:33;;;;;;;14.77;8.27;;;;;;;-1.01;100.00;101012.84;5355440;33;33994;-84
2023/12/04 16:32:37;;;;;;;13.13;8.33;;;;;;;-1.01;100.00;101016.34;5350898;33;33562;-83
2023/12/04 16:35:40;;;;;;;17.30;7.97;;;;;;;-1.08;100.00;101012.38;5352764;33;33262;-84
2023/12/04 16:38:43;;;;;;;14.90;7.62;;;;;;;-1.12;100.00;101015.25;5336866;33;34707;-84
2023/12/04 16:41:47;;;;;;;12.02;7.28;;;;;;;-1.20;100.00;101020.97;5339705;33;34079;-84
2023/12/04 16:44:49;;;;;;;16.62;7.82;;;;;;;-1.22;100.00;101012.28;5362216;33;35106;-84
2023/12/04 16:47:52;;;;;;;11.12;7.25;;;;;;;-1.33;100.00;101020.81;5348739;33;34903;-84
2023/12/04 16:50:57;;;;;;;15.00;8.27;;;;;;;-1.39;100.00;101007.94;5362239;33;34080;-84
2023/12/04 16:54:01;;;;;;;17.60;7.62;;;;;;;-1.44;100.00;101007.34;5348631;33;33891;-84
2023/12/04 16:57:03;;;;;;;19.25;7.70;;;;;;;-1.49;100.00;100998.81;5362044;33;33525;-84
